Terminal Aerodrome Forecast
Issued by NWS Upton, NY

Home | Current Version | Previous Version | Text Only | Print | Product List | Glossary On
Versions: 1 2 3 4 5 6 7 8 9 10 11 12 13 14 15 16 17 18 19 20 21 22 23 24 25 26 27 28 29 30 31 32
000
FTUS41 KOKX 040200 AAB
TAFISP
TAF AMD
KISP 040216Z 0402/0424 20010KT 2SM RA BKN004 OVC012
     FM040600 24008KT 3SM -SHRA BR OVC004 WS020/25050KT
     FM041100 26008KT 3SM -RA BR OVC008
     FM041700 26008KT 5SM -RA BR BKN008 BKN050=

USA.gov is the U.S. government's official web portal to all federal, state and local government web resources and services.